Time;durP1;ratioP1;P1;durP2;ratioP2;P2;SDS_P1;SDS_P2;PMS_P1;PMS_P2;Temp;Humidity;BMP_temperature;BMP_pressure;BME280_temperature;BME280_humidity;BME280_pressure;Samples;Min_cycle;Max_cycle;Signal;HPM_P1;HPM_P2
2023/01/30 00:01:26;;;;;;;;;;;3.80;99.90;;;;;;4988834;28;19968;-63
2023/01/30 00:03:52;;;;;;;;;;;3.80;99.90;;;;;;4993201;28;19914;-63
2023/01/30 00:06:18;;;;;;;;;;;3.70;99.90;;;;;;4990679;28;19921;-63
2023/01/30 00:08:44;;;;;;;;;;;3.70;99.90;;;;;;4990935;28;19922;-64
2023/01/30 00:11:11;;;;;;;;;;;3.70;99.90;;;;;;4971466;28;19914;-64
2023/01/30 00:13:37;;;;;;;;;;;3.70;99.90;;;;;;4998513;28;19913;-61
2023/01/30 00:16:03;;;;;;;;;;;3.80;99.90;;;;;;4994828;28;19924;-61
2023/01/30 00:18:30;;;;;;;;;;;3.80;99.90;;;;;;4993980;28;19964;-63
2023/01/30 00:20:59;;;;;;;;;;;3.80;99.90;;;;;;5000752;28;19914;-61
2023/01/30 00:23:26;;;;;;;;;;;3.70;99.90;;;;;;4989086;28;20315;-61
2023/01/30 00:25:51;;;;;;;;;;;3.60;99.90;;;;;;4992438;28;19957;-63
2023/01/30 00:28:17;;;;;;;;;;;3.50;99.90;;;;;;4992076;28;19921;-65
2023/01/30 00:30:43;;;;;;;;;;;3.40;99.90;;;;;;4991540;28;19930;-64
2023/01/30 00:33:09;;;;;;;;;;;3.40;99.90;;;;;;4988594;28;20450;-62
2023/01/30 00:35:34;;;;;;;;;;;3.40;99.90;;;;;;4989083;28;19914;-62
2023/01/30 00:38:00;;;;;;;;;;;3.40;99.90;;;;;;4982637;28;19917;-62
2023/01/30 00:40:27;;;;;;;;;;;3.50;99.90;;;;;;4982271;28;19950;-63
2023/01/30 00:48:22;;;;;;;;;;;3.30;99.90;;;;;;4978174;28;20023;-60
2023/01/30 00:50:48;;;;;;;;;;;3.30;99.90;;;;;;4986072;28;20007;-64
2023/01/30 00:53:14;;;;;;;;;;;3.30;99.90;;;;;;4984277;28;19982;-65
2023/01/30 00:55:42;;;;;;;;;;;3.20;99.90;;;;;;4982026;28;19926;-62
2023/01/30 00:58:08;;;;;;;;;;;3.20;99.90;;;;;;4978896;28;19936;-63
2023/01/30 01:00:33;;;;;;;;;;;3.20;99.90;;;;;;4981367;28;19955;-64
2023/01/30 01:02:59;;;;;;;;;;;3.10;99.90;;;;;;4982160;28;20317;-61
2023/01/30 01:05:26;;;;;;;;;;;3.10;99.90;;;;;;4979612;28;19937;-61
2023/01/30 01:07:51;;;;;;;;;;;3.10;99.90;;;;;;4983832;28;20009;-61
2023/01/30 01:10:17;;;;;;;;;;;3.10;99.90;;;;;;4983827;28;20083;-63
2023/01/30 01:12:43;;;;;;;;;;;3.10;99.90;;;;;;4981307;28;19994;-60
2023/01/30 01:15:10;;;;;;;;;;;3.10;99.90;;;;;;4980414;28;19913;-59
2023/01/30 01:17:36;;;;;;;;;;;3.10;99.90;;;;;;4982265;28;19918;-66
2023/01/30 01:20:03;;;;;;;;;;;3.00;99.90;;;;;;4980757;28;19921;-63
2023/01/30 01:22:29;;;;;;;;;;;3.10;99.90;;;;;;4980725;28;19945;-62
2023/01/30 01:24:55;;;;;;;;;;;3.00;99.90;;;;;;4984398;28;19976;-62
2023/01/30 01:27:20;;;;;;;;;;;3.00;99.90;;;;;;4980029;28;20203;-64
2023/01/30 01:29:47;;;;;;;;;;;3.00;99.90;;;;;;4981540;28;19968;-62
2023/01/30 01:32:12;;;;;;;;;;;3.00;99.90;;;;;;4979433;28;20540;-65
2023/01/30 01:34:38;;;;;;;;;;;3.00;99.90;;;;;;4981082;28;19921;-64
2023/01/30 01:37:04;;;;;;;;;;;3.10;99.90;;;;;;4983119;28;19925;-63
2023/01/30 01:41:00;;;;;;;;;;;3.10;99.90;;;;;;4979754;28;19921;-63
2023/01/30 01:42:15;;;;;;;;;;;3.10;99.90;;;;;;4978673;28;20051;-63
2023/01/30 01:44:57;;;;;;;;;;;2.80;99.90;;;;;;4979760;28;19998;-60
2023/01/30 01:47:23;;;;;;;;;;;2.80;99.90;;;;;;4980217;28;20391;-66
2023/01/30 01:49:48;;;;;;;;;;;2.70;99.90;;;;;;4981987;28;20033;-62
2023/01/30 01:52:15;;;;;;;;;;;2.70;99.90;;;;;;4979263;28;19918;-62
2023/01/30 01:54:46;;;;;;;;;;;2.70;99.90;;;;;;4983383;28;20035;-63
2023/01/30 01:57:18;;;;;;;;;;;2.60;99.90;;;;;;4989936;28;20399;-64
2023/01/30 02:00:01;;;;;;;;;;;2.60;99.90;;;;;;4988152;28;20016;-64
2023/01/30 02:02:27;;;;;;;;;;;2.50;99.90;;;;;;4992213;28;20375;-63
2023/01/30 02:05:01;;;;;;;;;;;2.50;99.90;;;;;;4992728;28;20008;-61
2023/01/30 02:07:39;;;;;;;;;;;2.50;99.90;;;;;;4982379;28;19965;-62
2023/01/30 02:10:07;;;;;;;;;;;2.50;99.90;;;;;;4981386;28;20444;-62
2023/01/30 02:12:33;;;;;;;;;;;2.60;99.90;;;;;;4979282;28;19917;-62
2023/01/30 02:14:59;;;;;;;;;;;2.60;99.90;;;;;;4980821;28;20367;-63
2023/01/30 02:17:25;;;;;;;;;;;2.70;99.90;;;;;;4985258;28;19929;-65
2023/01/30 02:19:54;;;;;;;;;;;2.70;99.90;;;;;;4984533;28;19914;-64
2023/01/30 02:22:19;;;;;;;;;;;2.60;99.90;;;;;;4986770;28;19997;-63
2023/01/30 02:24:54;;;;;;;;;;;2.60;99.90;;;;;;4988065;28;19957;-62
2023/01/30 02:27:26;;;;;;;;;;;2.60;99.90;;;;;;4985644;28;19914;-62
2023/01/30 02:30:10;;;;;;;;;;;2.60;99.90;;;;;;4992325;28;19925;-61
2023/01/30 02:32:57;;;;;;;;;;;2.60;99.90;;;;;;4997162;28;19925;-61
2023/01/30 02:35:32;;;;;;;;;;;2.70;99.90;;;;;;4989874;28;19920;-62
2023/01/30 02:38:01;;;;;;;;;;;2.70;99.90;;;;;;4986060;28;20012;-61
2023/01/30 02:40:29;;;;;;;;;;;2.70;99.90;;;;;;4985182;28;19914;-63
2023/01/30 02:43:14;;;;;;;;;;;2.70;99.90;;;;;;4986595;28;20434;-64
2023/01/30 02:46:09;;;;;;;;;;;2.70;99.90;;;;;;4986533;28;19914;-64
2023/01/30 02:48:43;;;;;;;;;;;2.80;99.90;;;;;;4939389;28;19969;-63
2023/01/30 02:51:29;;;;;;;;;;;2.80;99.90;;;;;;4988194;28;20533;-61
2023/01/30 02:53:55;;;;;;;;;;;2.70;99.90;;;;;;4991385;28;20008;-63
2023/01/30 02:56:20;;;;;;;;;;;2.60;99.90;;;;;;4999826;28;19944;-59
2023/01/30 02:58:53;;;;;;;;;;;2.60;99.90;;;;;;5003033;28;19910;-66
2023/01/30 03:01:25;;;;;;;;;;;2.70;99.90;;;;;;4994967;28;19910;-62
2023/01/30 03:04:00;;;;;;;;;;;2.70;99.90;;;;;;4998635;28;20290;-64
2023/01/30 03:06:39;;;;;;;;;;;2.70;99.90;;;;;;4997410;28;19917;-64
2023/01/30 03:09:05;;;;;;;;;;;2.60;99.90;;;;;;4996695;28;20378;-63
2023/01/30 03:11:59;;;;;;;;;;;2.50;99.90;;;;;;4997968;28;19924;-61
2023/01/30 03:14:28;;;;;;;;;;;2.40;99.90;;;;;;4988452;28;20008;-62
2023/01/30 03:16:56;;;;;;;;;;;2.40;99.90;;;;;;5004044;28;19954;-61
2023/01/30 03:19:22;;;;;;;;;;;2.40;99.90;;;;;;4994214;28;19921;-62
2023/01/30 03:21:47;;;;;;;;;;;2.50;99.90;;;;;;4996373;28;19910;-65
2023/01/30 03:24:14;;;;;;;;;;;2.40;99.90;;;;;;4996085;28;19932;-63
2023/01/30 03:26:44;;;;;;;;;;;2.50;99.90;;;;;;4988540;28;19950;-59
2023/01/30 03:29:09;;;;;;;;;;;2.50;99.90;;;;;;4985494;28;20368;-63
2023/01/30 03:31:35;;;;;;;;;;;2.40;99.90;;;;;;4984714;28;20049;-62
2023/01/30 03:34:01;;;;;;;;;;;2.40;99.90;;;;;;4980680;28;19929;-60
2023/01/30 03:36:26;;;;;;;;;;;2.30;99.90;;;;;;4984826;28;19929;-65
2023/01/30 03:38:52;;;;;;;;;;;2.40;99.90;;;;;;4980346;28;19913;-61
2023/01/30 03:41:18;;;;;;;;;;;2.40;99.90;;;;;;4984700;28;19929;-61
2023/01/30 03:43:44;;;;;;;;;;;2.40;99.90;;;;;;4985901;28;20446;-61
2023/01/30 03:46:09;;;;;;;;;;;2.40;99.90;;;;;;4970638;28;19941;-61
2023/01/30 03:48:35;;;;;;;;;;;2.40;99.90;;;;;;4980908;28;19933;-63
2023/01/30 03:51:00;;;;;;;;;;;2.40;99.90;;;;;;4974591;28;19914;-65
2023/01/30 03:53:26;;;;;;;;;;;2.40;99.90;;;;;;4971291;28;19929;-63
2023/01/30 03:55:52;;;;;;;;;;;2.40;99.90;;;;;;4976862;28;20013;-62
2023/01/30 03:58:17;;;;;;;;;;;2.40;99.90;;;;;;4985038;28;19929;-61
2023/01/30 04:00:43;;;;;;;;;;;2.40;99.90;;;;;;4980328;28;19914;-63
2023/01/30 04:03:08;;;;;;;;;;;2.40;99.90;;;;;;4979640;28;19921;-61
2023/01/30 04:05:34;;;;;;;;;;;2.40;99.90;;;;;;4982064;28;20341;-64
2023/01/30 04:08:00;;;;;;;;;;;2.40;99.90;;;;;;4984641;28;19918;-60
2023/01/30 04:10:26;;;;;;;;;;;2.30;99.90;;;;;;4981329;28;19921;-64
2023/01/30 04:12:52;;;;;;;;;;;2.40;99.90;;;;;;4983462;28;20014;-64
2023/01/30 04:15:17;;;;;;;;;;;2.30;99.90;;;;;;4982731;28;19942;-60
2023/01/30 04:17:43;;;;;;;;;;;2.30;99.90;;;;;;4986724;28;20004;-65
2023/01/30 04:20:09;;;;;;;;;;;2.20;99.90;;;;;;4985488;28;19913;-65
2023/01/30 04:22:35;;;;;;;;;;;2.30;99.90;;;;;;4987870;28;20044;-65
2023/01/30 04:25:01;;;;;;;;;;;2.30;99.90;;;;;;4984049;28;19914;-65
2023/01/30 04:27:27;;;;;;;;;;;2.20;99.90;;;;;;4983576;28;19914;-65
2023/01/30 04:29:52;;;;;;;;;;;2.20;99.90;;;;;;4986852;28;19987;-64
2023/01/30 04:32:18;;;;;;;;;;;2.20;99.90;;;;;;4985259;28;19953;-65
2023/01/30 04:34:44;;;;;;;;;;;2.10;99.90;;;;;;4987191;28;19991;-66
2023/01/30 04:37:10;;;;;;;;;;;2.10;99.90;;;;;;4982339;28;19914;-63
2023/01/30 04:39:36;;;;;;;;;;;2.10;99.90;;;;;;4980972;28;20004;-64
2023/01/30 04:42:01;;;;;;;;;;;2.10;99.90;;;;;;4985585;28;19917;-63
2023/01/30 04:44:27;;;;;;;;;;;2.10;99.90;;;;;;4981391;28;19928;-61
2023/01/30 04:46:53;;;;;;;;;;;2.20;99.90;;;;;;4980903;28;20360;-62
2023/01/30 04:49:19;;;;;;;;;;;2.20;99.90;;;;;;4981624;28;19958;-63
2023/01/30 04:51:44;;;;;;;;;;;2.20;99.90;;;;;;4998887;28;19954;-65
2023/01/30 04:54:10;;;;;;;;;;;2.20;99.90;;;;;;4989979;28;19913;-63
2023/01/30 04:56:36;;;;;;;;;;;2.10;99.90;;;;;;4991472;28;19958;-60
2023/01/30 04:59:01;;;;;;;;;;;2.20;99.90;;;;;;4994782;28;19913;-63
2023/01/30 05:01:32;;;;;;;;;;;2.10;99.90;;;;;;4990568;28;19914;-62
2023/01/30 05:03:57;;;;;;;;;;;2.10;99.90;;;;;;4988012;28;19914;-63
2023/01/30 05:06:24;;;;;;;;;;;2.10;99.90;;;;;;4997272;28;19921;-63
2023/01/30 05:08:50;;;;;;;;;;;2.10;99.90;;;;;;4983136;28;19910;-63
2023/01/30 05:11:16;;;;;;;;;;;2.00;99.90;;;;;;4987096;28;19909;-65
2023/01/30 05:13:42;;;;;;;;;;;2.00;99.90;;;;;;4991979;28;19918;-63
2023/01/30 05:16:09;;;;;;;;;;;2.00;99.90;;;;;;4992044;28;19949;-61
2023/01/30 05:18:34;;;;;;;;;;;2.10;99.90;;;;;;4990937;28;19917;-63
2023/01/30 05:21:11;;;;;;;;;;;2.10;99.90;;;;;;4991283;28;19910;-62
2023/01/30 05:23:37;;;;;;;;;;;2.10;99.90;;;;;;4977142;28;19918;-59
2023/01/30 05:26:03;;;;;;;;;;;2.10;99.90;;;;;;4981208;28;20323;-61
2023/01/30 05:28:34;;;;;;;;;;;2.10;99.90;;;;;;4983518;28;19918;-62
2023/01/30 05:31:04;;;;;;;;;;;2.10;99.90;;;;;;4983397;28;19917;-63
2023/01/30 05:33:30;;;;;;;;;;;2.10;99.90;;;;;;4976478;28;20039;-62
2023/01/30 05:35:56;;;;;;;;;;;2.10;99.90;;;;;;4979251;28;20644;-61
2023/01/30 05:38:22;;;;;;;;;;;2.00;99.90;;;;;;4979141;28;19944;-61
2023/01/30 05:40:56;;;;;;;;;;;2.00;99.90;;;;;;4980620;28;19915;-61
2023/01/30 05:43:22;;;;;;;;;;;2.10;99.90;;;;;;4979876;28;21857;-61
2023/01/30 05:45:51;;;;;;;;;;;2.00;99.90;;;;;;4979787;28;19961;-64
2023/01/30 05:48:17;;;;;;;;;;;2.00;99.90;;;;;;4978190;28;19924;-64
2023/01/30 05:50:45;;;;;;;;;;;1.90;99.90;;;;;;4976462;28;19923;-60
2023/01/30 05:53:10;;;;;;;;;;;1.90;99.90;;;;;;4981348;28;20379;-62
2023/01/30 05:55:36;;;;;;;;;;;2.00;99.90;;;;;;4980181;28;19956;-62
2023/01/30 05:58:02;;;;;;;;;;;2.10;99.90;;;;;;4983084;28;21592;-63
2023/01/30 06:00:27;;;;;;;;;;;2.10;99.90;;;;;;4980233;28;19918;-64
2023/01/30 06:02:53;;;;;;;;;;;2.10;99.90;;;;;;4982777;28;19925;-65
2023/01/30 06:05:18;;;;;;;;;;;2.10;99.90;;;;;;4978817;28;20400;-63
2023/01/30 06:07:44;;;;;;;;;;;2.20;99.90;;;;;;4983202;28;19921;-60
2023/01/30 06:10:10;;;;;;;;;;;2.20;99.90;;;;;;4984511;28;20332;-65
2023/01/30 06:12:35;;;;;;;;;;;2.20;99.90;;;;;;4981290;28;20028;-63
2023/01/30 06:15:01;;;;;;;;;;;2.10;99.90;;;;;;4980476;28;19937;-65
2023/01/30 06:17:27;;;;;;;;;;;2.00;99.90;;;;;;4981226;28;19972;-65
2023/01/30 06:19:55;;;;;;;;;;;1.90;99.90;;;;;;4978722;28;20379;-63
2023/01/30 06:22:21;;;;;;;;;;;1.90;99.90;;;;;;4981131;28;19962;-64
2023/01/30 06:24:47;;;;;;;;;;;1.90;99.90;;;;;;4994485;28;19968;-62
2023/01/30 06:27:13;;;;;;;;;;;2.00;99.90;;;;;;4999536;28;19992;-63
2023/01/30 06:29:38;;;;;;;;;;;1.90;99.90;;;;;;4998831;28;19953;-61
2023/01/30 06:32:04;;;;;;;;;;;1.90;99.90;;;;;;4999797;28;19910;-65
2023/01/30 06:34:33;;;;;;;;;;;1.90;99.90;;;;;;4997090;28;19985;-65
2023/01/30 06:36:58;;;;;;;;;;;1.90;99.90;;;;;;4996669;28;20392;-64
2023/01/30 06:39:24;;;;;;;;;;;1.90;99.90;;;;;;4983096;28;19914;-63
2023/01/30 06:41:50;;;;;;;;;;;1.80;99.90;;;;;;4980239;28;20064;-63
2023/01/30 06:44:15;;;;;;;;;;;1.90;99.90;;;;;;4981532;28;19941;-64
2023/01/30 06:46:41;;;;;;;;;;;1.90;99.90;;;;;;4994436;28;19918;-65
2023/01/30 06:49:06;;;;;;;;;;;1.90;99.90;;;;;;5003035;28;19913;-65
2023/01/30 06:51:32;;;;;;;;;;;1.80;99.90;;;;;;5001166;28;19924;-65
2023/01/30 06:53:58;;;;;;;;;;;1.80;99.90;;;;;;4995494;28;20060;-64
2023/01/30 06:56:23;;;;;;;;;;;1.80;99.90;;;;;;4991995;28;20291;-65
2023/01/30 06:58:49;;;;;;;;;;;1.80;99.90;;;;;;4996312;28;19910;-65
2023/01/30 07:01:14;;;;;;;;;;;1.80;99.90;;;;;;4998697;28;19932;-65
2023/01/30 07:03:40;;;;;;;;;;;1.90;99.90;;;;;;4994289;28;19910;-65
2023/01/30 07:06:06;;;;;;;;;;;1.90;99.90;;;;;;4995622;28;19914;-64
2023/01/30 07:08:31;;;;;;;;;;;2.00;99.90;;;;;;4995852;28;20269;-64
2023/01/30 07:10:57;;;;;;;;;;;2.00;99.90;;;;;;4996175;28;19910;-65
2023/01/30 07:13:23;;;;;;;;;;;2.10;99.90;;;;;;5003856;28;20340;-65
2023/01/30 07:15:49;;;;;;;;;;;2.20;99.90;;;;;;4978521;28;19914;-63
2023/01/30 07:18:15;;;;;;;;;;;2.30;99.90;;;;;;4996877;28;19910;-68
2023/01/30 07:20:41;;;;;;;;;;;2.30;99.90;;;;;;4993410;28;20328;-68
2023/01/30 07:23:07;;;;;;;;;;;2.40;99.90;;;;;;4994354;28;19917;-68
2023/01/30 07:25:33;;;;;;;;;;;2.40;99.90;;;;;;4990247;28;19918;-68
2023/01/30 07:27:59;;;;;;;;;;;2.50;99.90;;;;;;4981740;28;20343;-68
2023/01/30 07:30:26;;;;;;;;;;;2.80;99.90;;;;;;4981119;28;19921;-68
2023/01/30 07:32:53;;;;;;;;;;;3.00;99.90;;;;;;4979313;28;19922;-67
2023/01/30 07:35:19;;;;;;;;;;;3.20;99.90;;;;;;4983443;28;19925;-67
2023/01/30 07:37:46;;;;;;;;;;;3.30;99.90;;;;;;5002607;28;20359;-68
2023/01/30 07:40:12;;;;;;;;;;;3.30;99.90;;;;;;4999562;28;19936;-68
2023/01/30 07:42:37;;;;;;;;;;;3.30;99.90;;;;;;4992654;28;20430;-68
2023/01/30 07:45:03;;;;;;;;;;;3.30;99.90;;;;;;5004060;28;20297;-68
2023/01/30 07:47:29;;;;;;;;;;;3.20;99.90;;;;;;4996301;28;19956;-69
2023/01/30 07:49:55;;;;;;;;;;;3.20;99.90;;;;;;4994557;28;20322;-67
2023/01/30 07:52:21;;;;;;;;;;;3.40;99.90;;;;;;4998015;28;19997;-68
2023/01/30 07:54:46;;;;;;;;;;;3.30;99.90;;;;;;4995866;28;20275;-67
2023/01/30 07:57:12;;;;;;;;;;;3.40;99.90;;;;;;4987938;28;20336;-68
2023/01/30 07:59:38;;;;;;;;;;;3.50;99.90;;;;;;4987800;28;20358;-67
2023/01/30 08:02:04;;;;;;;;;;;3.50;99.90;;;;;;4980451;28;19910;-68
2023/01/30 08:04:30;;;;;;;;;;;3.50;99.90;;;;;;4995521;28;19977;-67
2023/01/30 08:06:56;;;;;;;;;;;3.50;99.90;;;;;;4990188;28;20375;-67
2023/01/30 08:09:21;;;;;;;;;;;3.60;99.90;;;;;;4982933;28;19921;-68
2023/01/30 08:11:47;;;;;;;;;;;3.80;99.90;;;;;;4985481;28;19932;-68
2023/01/30 08:14:13;;;;;;;;;;;3.90;99.90;;;;;;4982419;28;21701;-68
2023/01/30 08:16:39;;;;;;;;;;;4.10;99.90;;;;;;4983287;28;19934;-68
2023/01/30 08:19:05;;;;;;;;;;;4.30;99.90;;;;;;4984712;28;20498;-67
2023/01/30 08:21:30;;;;;;;;;;;4.50;99.90;;;;;;4994393;28;19922;-67
2023/01/30 08:23:56;;;;;;;;;;;4.70;99.90;;;;;;4997642;28;19929;-67
2023/01/30 08:26:22;;;;;;;;;;;5.00;99.90;;;;;;4980622;28;20383;-68
2023/01/30 08:28:47;;;;;;;;;;;5.50;99.90;;;;;;4983257;28;19914;-68
2023/01/30 08:31:15;;;;;;;;;;;5.80;99.90;;;;;;4982749;28;19918;-69
2023/01/30 08:33:41;;;;;;;;;;;5.90;99.90;;;;;;4986772;28;20003;-68
2023/01/30 08:36:06;;;;;;;;;;;6.10;99.90;;;;;;4988436;28;19929;-67
2023/01/30 08:38:32;;;;;;;;;;;6.10;99.90;;;;;;4987129;28;19914;-68
2023/01/30 08:40:59;;;;;;;;;;;5.90;99.90;;;;;;4998915;28;20367;-67
2023/01/30 08:43:25;;;;;;;;;;;6.00;99.90;;;;;;4990300;28;20338;-67
2023/01/30 08:45:54;;;;;;;;;;;6.00;99.90;;;;;;4992991;28;19914;-68
2023/01/30 08:48:19;;;;;;;;;;;5.80;99.90;;;;;;4987424;28;19914;-67
2023/01/30 08:50:45;;;;;;;;;;;5.70;99.90;;;;;;4985167;28;19944;-68
2023/01/30 08:53:10;;;;;;;;;;;5.70;99.90;;;;;;4998240;28;20067;-68
2023/01/30 08:55:36;;;;;;;;;;;5.70;99.90;;;;;;4988604;28;19973;-68
2023/01/30 08:58:02;;;;;;;;;;;5.60;99.90;;;;;;5001262;28;19921;-68
2023/01/30 09:00:28;;;;;;;;;;;5.60;99.90;;;;;;4993539;28;19913;-68
2023/01/30 09:02:56;;;;;;;;;;;5.60;99.90;;;;;;4995519;28;19922;-68
2023/01/30 09:05:23;;;;;;;;;;;5.70;99.90;;;;;;4982715;28;19924;-68
2023/01/30 09:07:49;;;;;;;;;;;5.90;99.90;;;;;;4997509;28;19996;-65
2023/01/30 09:10:14;;;;;;;;;;;5.90;99.90;;;;;;4996424;28;20016;-65
2023/01/30 09:12:40;;;;;;;;;;;6.00;99.90;;;;;;4999449;28;19929;-66
2023/01/30 09:15:06;;;;;;;;;;;6.20;99.90;;;;;;4982854;28;19918;-65
2023/01/30 09:17:32;;;;;;;;;;;6.30;99.90;;;;;;5002493;28;19949;-64
2023/01/30 09:19:57;;;;;;;;;;;6.40;99.90;;;;;;5000123;28;20255;-67
2023/01/30 09:22:23;;;;;;;;;;;6.50;99.90;;;;;;4992787;28;20021;-66
2023/01/30 09:24:49;;;;;;;;;;;6.40;99.90;;;;;;4988456;28;19914;-66
2023/01/30 09:27:14;;;;;;;;;;;6.40;99.90;;;;;;4991035;28;19920;-66
2023/01/30 09:29:40;;;;;;;;;;;6.40;99.90;;;;;;4991420;28;19921;-66
2023/01/30 09:32:05;;;;;;;;;;;6.40;99.90;;;;;;4986943;28;19945;-65
2023/01/30 09:34:31;;;;;;;;;;;6.50;99.90;;;;;;4992147;28;20465;-66
2023/01/30 09:37:01;;;;;;;;;;;6.50;99.90;;;;;;4988581;28;19918;-66
2023/01/30 09:39:27;;;;;;;;;;;6.50;99.90;;;;;;4992787;28;19913;-66
2023/01/30 09:42:07;;;;;;;;;;;6.60;99.90;;;;;;4991463;28;20454;-66
2023/01/30 09:44:45;;;;;;;;;;;6.60;99.90;;;;;;4995321;28;19909;-66
2023/01/30 09:47:12;;;;;;;;;;;6.50;99.90;;;;;;4985869;28;19914;-66
2023/01/30 09:49:37;;;;;;;;;;;6.60;99.90;;;;;;4999780;28;20478;-67
2023/01/30 09:52:21;;;;;;;;;;;6.60;99.90;;;;;;4989958;28;19913;-67
2023/01/30 09:54:47;;;;;;;;;;;6.60;99.90;;;;;;4992611;28;19918;-67
2023/01/30 09:57:19;;;;;;;;;;;6.70;99.90;;;;;;4989673;28;19920;-66
2023/01/30 09:59:47;;;;;;;;;;;6.70;99.90;;;;;;4992275;28;19918;-66
2023/01/30 10:02:32;;;;;;;;;;;6.80;99.90;;;;;;4992502;28;19946;-66
2023/01/30 10:04:58;;;;;;;;;;;6.80;99.90;;;;;;5000109;28;19910;-66
2023/01/30 10:07:29;;;;;;;;;;;6.90;99.90;;;;;;4998361;28;19944;-66
2023/01/30 10:10:02;;;;;;;;;;;7.00;99.90;;;;;;4996160;28;19996;-66
2023/01/30 10:12:30;;;;;;;;;;;7.00;99.90;;;;;;4999748;28;19914;-66
2023/01/30 10:15:02;;;;;;;;;;;7.10;99.90;;;;;;5004625;28;19972;-66
2023/01/30 10:17:35;;;;;;;;;;;7.20;99.90;;;;;;4990969;28;20351;-66
2023/01/30 10:20:30;;;;;;;;;;;7.20;99.90;;;;;;4987972;28;20335;-66
2023/01/30 10:22:59;;;;;;;;;;;7.20;99.90;;;;;;4997783;28;19910;-66
2023/01/30 10:25:33;;;;;;;;;;;7.30;99.90;;;;;;4992285;28;19984;-66
2023/01/30 10:28:13;;;;;;;;;;;7.30;99.90;;;;;;5002209;28;19913;-66
2023/01/30 10:30:39;;;;;;;;;;;7.30;99.90;;;;;;4997039;28;19913;-66
2023/01/30 10:33:11;;;;;;;;;;;7.30;99.90;;;;;;4992682;28;19918;-66
2023/01/30 10:35:38;;;;;;;;;;;7.40;99.90;;;;;;5002361;28;19913;-67
2023/01/30 10:38:11;;;;;;;;;;;7.50;99.90;;;;;;4995552;28;19918;-67
2023/01/30 10:40:37;;;;;;;;;;;7.50;99.90;;;;;;4980802;28;20005;-66
2023/01/30 10:43:19;;;;;;;;;;;7.50;99.90;;;;;;4990041;28;19953;-67
2023/01/30 10:46:11;;;;;;;;;;;7.60;99.90;;;;;;4995222;28;20343;-66
2023/01/30 10:48:42;;;;;;;;;;;7.50;99.90;;;;;;5000363;28;19960;-66
2023/01/30 10:51:21;;;;;;;;;;;7.50;99.90;;;;;;4995744;28;20337;-66
2023/01/30 10:53:53;;;;;;;;;;;7.60;99.90;;;;;;4999847;28;19972;-66
2023/01/30 10:56:37;;;;;;;;;;;7.70;99.90;;;;;;5001592;28;20012;-66
2023/01/30 10:59:22;;;;;;;;;;;7.80;99.90;;;;;;4993606;28;19921;-70
2023/01/30 11:02:17;;;;;;;;;;;7.80;99.90;;;;;;4999287;28;20010;-70
2023/01/30 11:04:47;;;;;;;;;;;7.90;99.90;;;;;;4921557;28;19911;-69
2023/01/30 11:07:13;;;;;;;;;;;7.80;99.90;;;;;;4994599;28;19917;-70
2023/01/30 11:09:43;;;;;;;;;;;7.80;99.90;;;;;;4997430;28;19914;-70
2023/01/30 11:12:09;;;;;;;;;;;7.80;99.90;;;;;;4999821;28;19929;-70
2023/01/30 11:14:52;;;;;;;;;;;7.80;99.90;;;;;;4995398;28;20371;-70
2023/01/30 11:17:19;;;;;;;;;;;7.70;99.90;;;;;;4984258;28;19924;-70
2023/01/30 11:19:44;;;;;;;;;;;7.80;99.90;;;;;;5002433;28;19921;-70
2023/01/30 11:22:13;;;;;;;;;;;7.70;99.90;;;;;;4991995;28;20014;-70
2023/01/30 11:24:39;;;;;;;;;;;7.70;99.90;;;;;;4994480;28;19914;-70
2023/01/30 11:27:10;;;;;;;;;;;7.70;99.90;;;;;;4974332;28;20000;-70
2023/01/30 11:29:39;;;;;;;;;;;7.70;99.90;;;;;;4998115;28;19914;-69
2023/01/30 11:32:10;;;;;;;;;;;7.70;99.90;;;;;;4986862;28;20375;-70
2023/01/30 11:34:36;;;;;;;;;;;7.70;99.90;;;;;;4996791;28;19917;-70
2023/01/30 11:37:13;;;;;;;;;;;7.70;99.90;;;;;;5002214;28;19987;-70
2023/01/30 11:39:46;;;;;;;;;;;7.70;99.90;;;;;;4988462;28;19924;-70
2023/01/30 11:42:11;;;;;;;;;;;7.60;99.90;;;;;;4989773;28;19937;-70
2023/01/30 11:44:39;;;;;;;;;;;7.50;99.90;;;;;;4992496;28;19918;-73
2023/01/30 11:47:11;;;;;;;;;;;7.50;99.90;;;;;;4987201;28;19914;-70
2023/01/30 11:49:40;;;;;;;;;;;7.50;99.90;;;;;;4991638;28;20008;-70
2023/01/30 11:52:06;;;;;;;;;;;7.40;99.90;;;;;;4987067;28;19958;-70
2023/01/30 11:54:43;;;;;;;;;;;7.50;99.90;;;;;;4991374;28;20008;-70
2023/01/30 11:57:16;;;;;;;;;;;7.50;99.90;;;;;;4973720;28;19921;-70
2023/01/30 12:00:08;;;;;;;;;;;7.50;99.90;;;;;;4989964;28;19925;-71
2023/01/30 12:02:36;;;;;;;;;;;7.60;99.90;;;;;;4977719;28;20430;-70
2023/01/30 12:05:04;;;;;;;;;;;7.60;99.90;;;;;;4998023;28;20019;-71
2023/01/30 12:07:31;;;;;;;;;;;7.60;99.90;;;;;;4975667;28;19921;-70
2023/01/30 12:09:57;;;;;;;;;;;7.60;99.90;;;;;;4989716;28;19918;-71
2023/01/30 12:12:23;;;;;;;;;;;7.70;99.90;;;;;;4976438;28;20022;-71
2023/01/30 12:14:50;;;;;;;;;;;7.60;99.90;;;;;;4998997;28;20371;-70
2023/01/30 12:17:21;;;;;;;;;;;7.60;99.90;;;;;;4995779;28;19921;-70
2023/01/30 12:20:03;;;;;;;;;;;7.60;99.90;;;;;;4978934;28;19922;-70
2023/01/30 12:22:40;;;;;;;;;;;7.60;99.90;;;;;;4998248;28;19984;-69
2023/01/30 12:25:12;;;;;;;;;;;7.60;99.90;;;;;;4995411;28;19918;-69
2023/01/30 12:27:56;;;;;;;;;;;7.70;99.90;;;;;;4991844;28;20548;-71
2023/01/30 12:30:25;;;;;;;;;;;7.70;99.90;;;;;;4992563;28;19918;-69
2023/01/30 12:32:54;;;;;;;;;;;7.80;99.90;;;;;;4993754;28;19933;-70
2023/01/30 12:35:23;;;;;;;;;;;7.90;99.90;;;;;;4994974;28;20366;-70
2023/01/30 12:38:00;;;;;;;;;;;7.90;99.90;;;;;;4997770;28;19913;-70
2023/01/30 12:40:28;;;;;;;;;;;7.90;99.90;;;;;;4993279;28;19921;-69
2023/01/30 12:42:54;;;;;;;;;;;7.90;99.90;;;;;;4999681;28;19963;-70
2023/01/30 12:45:19;;;;;;;;;;;8.00;99.90;;;;;;4992089;28;19918;-69
2023/01/30 12:47:53;;;;;;;;;;;8.00;99.90;;;;;;4998008;28;20292;-71
2023/01/30 12:50:25;;;;;;;;;;;8.00;99.90;;;;;;4991064;28;19913;-69
2023/01/30 12:53:11;;;;;;;;;;;8.10;99.90;;;;;;5001198;28;20285;-71
2023/01/30 12:55:46;;;;;;;;;;;8.10;99.90;;;;;;4999268;28;20000;-69
2023/01/30 12:58:20;;;;;;;;;;;8.10;99.90;;;;;;4989851;28;19936;-69
2023/01/30 13:00:58;;;;;;;;;;;8.10;99.90;;;;;;4994892;28;19945;-69
2023/01/30 13:03:33;;;;;;;;;;;8.20;99.90;;;;;;4985112;28;19937;-70
2023/01/30 13:06:17;;;;;;;;;;;8.20;99.90;;;;;;4991600;28;19929;-70
2023/01/30 13:08:52;;;;;;;;;;;8.10;99.90;;;;;;4989877;28;19925;-70
2023/01/30 13:11:18;;;;;;;;;;;8.10;99.90;;;;;;4991965;28;19916;-70
2023/01/30 13:13:55;;;;;;;;;;;8.10;99.90;;;;;;4988419;28;19988;-70
2023/01/30 13:16:31;;;;;;;;;;;8.10;99.90;;;;;;4988600;28;19918;-70
2023/01/30 13:19:17;;;;;;;;;;;8.20;99.90;;;;;;4987850;28;19914;-71
2023/01/30 13:21:49;;;;;;;;;;;8.30;99.90;;;;;;4983763;28;19953;-70
2023/01/30 13:24:25;;;;;;;;;;;8.30;99.90;;;;;;4988616;28;19926;-70
2023/01/30 13:26:51;;;;;;;;;;;8.30;99.90;;;;;;4988213;28;20174;-70
2023/01/30 13:29:16;;;;;;;;;;;8.40;99.90;;;;;;4981411;28;19993;-70
2023/01/30 13:31:47;;;;;;;;;;;8.30;99.90;;;;;;4987358;28;20387;-70
2023/01/30 13:34:23;;;;;;;;;;;8.30;99.90;;;;;;4994770;28;19968;-70
2023/01/30 13:37:03;;;;;;;;;;;8.30;99.90;;;;;;4985028;28;19944;-70
2023/01/30 13:39:47;;;;;;;;;;;8.30;99.90;;;;;;4990984;28;19914;-70
2023/01/30 13:42:18;;;;;;;;;;;8.40;99.90;;;;;;4991072;28;20329;-70
2023/01/30 13:44:43;;;;;;;;;;;8.40;99.90;;;;;;4992448;28;20013;-70
2023/01/30 13:47:09;;;;;;;;;;;8.40;99.90;;;;;;4992665;28;19961;-70
2023/01/30 13:49:41;;;;;;;;;;;8.40;99.90;;;;;;4985918;28;19914;-70
2023/01/30 13:52:22;;;;;;;;;;;8.40;99.90;;;;;;4996497;28;20258;-71
2023/01/30 13:54:58;;;;;;;;;;;8.50;99.90;;;;;;4992467;28;19918;-70
2023/01/30 13:57:35;;;;;;;;;;;8.40;99.90;;;;;;4993892;28;19913;-70
2023/01/30 14:00:15;;;;;;;;;;;8.40;99.90;;;;;;4996521;28;19929;-71
2023/01/30 14:02:59;;;;;;;;;;;8.40;99.90;;;;;;4990605;28;20206;-70
2023/01/30 14:05:45;;;;;;;;;;;8.50;99.90;;;;;;4990483;28;20001;-70
2023/01/30 14:08:11;;;;;;;;;;;8.60;99.90;;;;;;4981351;28;19920;-70
2023/01/30 14:10:37;;;;;;;;;;;8.60;99.90;;;;;;4993418;28;20243;-70
2023/01/30 14:13:04;;;;;;;;;;;8.50;99.90;;;;;;4994754;28;19925;-70
2023/01/30 14:15:30;;;;;;;;;;;8.50;99.90;;;;;;4997499;28;20062;-70
2023/01/30 14:17:56;;;;;;;;;;;8.60;99.90;;;;;;5000623;28;19970;-72
2023/01/30 14:20:23;;;;;;;;;;;8.60;99.90;;;;;;4995573;28;19918;-71
2023/01/30 14:22:55;;;;;;;;;;;8.50;99.90;;;;;;4996024;28;20383;-70
2023/01/30 14:25:21;;;;;;;;;;;8.60;99.90;;;;;;4998456;28;19920;-70
2023/01/30 14:27:49;;;;;;;;;;;8.60;99.90;;;;;;4999305;28;19914;-69
2023/01/30 14:30:43;;;;;;;;;;;8.50;99.90;;;;;;4996310;28;19909;-67
2023/01/30 14:33:18;;;;;;;;;;;8.50;99.90;;;;;;4979628;28;20471;-70
2023/01/30 14:35:45;;;;;;;;;;;8.50;99.90;;;;;;4990982;28;20287;-70
2023/01/30 14:38:11;;;;;;;;;;;8.40;99.90;;;;;;4992317;28;19936;-70
2023/01/30 14:40:40;;;;;;;;;;;8.50;99.90;;;;;;4987958;28;20291;-70
2023/01/30 14:43:29;;;;;;;;;;;8.50;99.90;;;;;;4982269;28;19921;-70
2023/01/30 14:45:56;;;;;;;;;;;8.40;99.90;;;;;;4997125;28;19922;-69
2023/01/30 14:48:30;;;;;;;;;;;8.50;99.90;;;;;;4994784;28;20423;-69